sensor_id;sensor_type;location;lat;lon;timestamp;P1;durP1;ratioP1;P2;durP2;ratioP2
12288;SDS011;6207;49.308;7.336;2022-11-12T00:00:52;42.97;;;5.13;;
12288;SDS011;6207;49.308;7.336;2022-11-12T00:03:19;26.43;;;5.03;;
12288;SDS011;6207;49.308;7.336;2022-11-12T00:05:47;17.17;;;4.70;;
12288;SDS011;6207;49.308;7.336;2022-11-12T00:08:15;42.17;;;5.33;;
12288;SDS011;6207;49.308;7.336;2022-11-12T00:10:43;37.87;;;5.43;;
12288;SDS011;6207;49.308;7.336;2022-11-12T00:13:11;79.67;;;6.00;;
12288;SDS011;6207;49.308;7.336;2022-11-12T00:15:38;52.77;;;5.47;;
12288;SDS011;6207;49.308;7.336;2022-11-12T00:18:05;27.17;;;4.80;;
12288;SDS011;6207;49.308;7.336;2022-11-12T00:20:32;30.47;;;4.83;;
12288;SDS011;6207;49.308;7.336;2022-11-12T00:23:00;37.87;;;5.50;;
12288;SDS011;6207;49.308;7.336;2022-11-12T00:25:27;48.53;;;5.67;;
12288;SDS011;6207;49.308;7.336;2022-11-12T00:27:59;50.07;;;6.50;;
12288;SDS011;6207;49.308;7.336;2022-11-12T00:30:27;57.23;;;6.73;;
12288;SDS011;6207;49.308;7.336;2022-11-12T00:32:54;80.93;;;8.23;;
12288;SDS011;6207;49.308;7.336;2022-11-12T00:35:21;53.87;;;6.67;;
12288;SDS011;6207;49.308;7.336;2022-11-12T00:37:52;74.00;;;7.10;;
12288;SDS011;6207;49.308;7.336;2022-11-12T00:40:23;246.37;;;10.03;;
12288;SDS011;6207;49.308;7.336;2022-11-12T00:42:50;37.13;;;5.40;;
12288;SDS011;6207;49.308;7.336;2022-11-12T00:45:18;82.67;;;6.73;;
12288;SDS011;6207;49.308;7.336;2022-11-12T00:47:45;36.07;;;5.60;;
12288;SDS011;6207;49.308;7.336;2022-11-12T00:50:12;40.23;;;5.37;;
12288;SDS011;6207;49.308;7.336;2022-11-12T00:52:41;20.77;;;4.43;;
12288;SDS011;6207;49.308;7.336;2022-11-12T00:55:08;19.93;;;4.60;;
12288;SDS011;6207;49.308;7.336;2022-11-12T00:57:35;10.13;;;4.40;;
12288;SDS011;6207;49.308;7.336;2022-11-12T01:00:03;16.43;;;4.40;;
12288;SDS011;6207;49.308;7.336;2022-11-12T01:02:33;10.23;;;3.63;;
12288;SDS011;6207;49.308;7.336;2022-11-12T01:05:09;16.43;;;3.37;;
12288;SDS011;6207;49.308;7.336;2022-11-12T01:07:36;28.87;;;4.80;;
12288;SDS011;6207;49.308;7.336;2022-11-12T01:10:03;10.07;;;3.90;;
12288;SDS011;6207;49.308;7.336;2022-11-12T01:12:30;7.33;;;3.50;;
12288;SDS011;6207;49.308;7.336;2022-11-12T01:14:57;15.17;;;4.27;;
12288;SDS011;6207;49.308;7.336;2022-11-12T01:17:25;32.07;;;4.13;;
12288;SDS011;6207;49.308;7.336;2022-11-12T01:19:51;7.50;;;2.90;;
12288;SDS011;6207;49.308;7.336;2022-11-12T01:22:18;13.57;;;3.93;;
12288;SDS011;6207;49.308;7.336;2022-11-12T01:24:45;21.17;;;4.57;;
12288;SDS011;6207;49.308;7.336;2022-11-12T01:27:12;14.60;;;4.30;;
12288;SDS011;6207;49.308;7.336;2022-11-12T01:29:38;27.53;;;4.30;;
12288;SDS011;6207;49.308;7.336;2022-11-12T01:32:06;27.20;;;4.70;;
12288;SDS011;6207;49.308;7.336;2022-11-12T01:34:33;34.40;;;5.20;;
12288;SDS011;6207;49.308;7.336;2022-11-12T01:37:00;59.37;;;5.77;;
12288;SDS011;6207;49.308;7.336;2022-11-12T01:39:27;35.30;;;4.93;;
12288;SDS011;6207;49.308;7.336;2022-11-12T01:41:53;47.27;;;4.83;;
12288;SDS011;6207;49.308;7.336;2022-11-12T01:44:21;44.97;;;5.10;;
12288;SDS011;6207;49.308;7.336;2022-11-12T01:52:19;30.77;;;5.40;;
12288;SDS011;6207;49.308;7.336;2022-11-12T01:54:54;40.17;;;5.63;;
12288;SDS011;6207;49.308;7.336;2022-11-12T01:57:28;31.00;;;5.63;;
12288;SDS011;6207;49.308;7.336;2022-11-12T02:00:02;40.93;;;5.83;;
12288;SDS011;6207;49.308;7.336;2022-11-12T02:02:33;38.00;;;5.80;;
12288;SDS011;6207;49.308;7.336;2022-11-12T02:05:02;60.73;;;6.57;;
12288;SDS011;6207;49.308;7.336;2022-11-12T02:07:33;22.00;;;5.43;;
12288;SDS011;6207;49.308;7.336;2022-11-12T02:10:02;20.73;;;5.97;;
12288;SDS011;6207;49.308;7.336;2022-11-12T02:12:30;41.53;;;5.53;;
12288;SDS011;6207;49.308;7.336;2022-11-12T02:15:15;19.87;;;5.50;;
12288;SDS011;6207;49.308;7.336;2022-11-12T02:17:42;33.80;;;5.37;;
12288;SDS011;6207;49.308;7.336;2022-11-12T02:20:10;21.10;;;5.13;;
12288;SDS011;6207;49.308;7.336;2022-11-12T02:22:38;21.87;;;5.33;;
12288;SDS011;6207;49.308;7.336;2022-11-12T02:25:05;16.97;;;5.63;;
12288;SDS011;6207;49.308;7.336;2022-11-12T02:27:34;15.13;;;4.67;;
12288;SDS011;6207;49.308;7.336;2022-11-12T02:30:01;19.27;;;4.47;;
12288;SDS011;6207;49.308;7.336;2022-11-12T02:32:28;23.93;;;5.83;;
12288;SDS011;6207;49.308;7.336;2022-11-12T02:34:55;18.10;;;5.37;;
12288;SDS011;6207;49.308;7.336;2022-11-12T02:37:21;27.23;;;5.07;;
12288;SDS011;6207;49.308;7.336;2022-11-12T02:39:48;55.20;;;6.93;;
12288;SDS011;6207;49.308;7.336;2022-11-12T02:42:15;77.73;;;7.20;;
12288;SDS011;6207;49.308;7.336;2022-11-12T02:44:42;35.67;;;5.60;;
12288;SDS011;6207;49.308;7.336;2022-11-12T02:47:09;42.57;;;5.77;;
12288;SDS011;6207;49.308;7.336;2022-11-12T02:49:36;34.23;;;6.00;;
12288;SDS011;6207;49.308;7.336;2022-11-12T02:52:03;25.80;;;5.47;;
12288;SDS011;6207;49.308;7.336;2022-11-12T02:54:30;44.40;;;5.87;;
12288;SDS011;6207;49.308;7.336;2022-11-12T02:56:57;26.23;;;4.40;;
12288;SDS011;6207;49.308;7.336;2022-11-12T02:59:23;102.87;;;6.70;;
12288;SDS011;6207;49.308;7.336;2022-11-12T03:01:50;64.63;;;5.40;;
12288;SDS011;6207;49.308;7.336;2022-11-12T03:04:17;69.63;;;6.53;;
12288;SDS011;6207;49.308;7.336;2022-11-12T03:06:44;79.37;;;6.17;;
12288;SDS011;6207;49.308;7.336;2022-11-12T03:09:11;64.47;;;5.70;;
12288;SDS011;6207;49.308;7.336;2022-11-12T03:11:38;22.67;;;4.67;;
12288;SDS011;6207;49.308;7.336;2022-11-12T03:14:05;48.40;;;5.47;;
12288;SDS011;6207;49.308;7.336;2022-11-12T03:16:32;36.47;;;5.40;;
12288;SDS011;6207;49.308;7.336;2022-11-12T03:18:59;23.47;;;4.73;;
12288;SDS011;6207;49.308;7.336;2022-11-12T03:21:26;36.73;;;5.10;;
12288;SDS011;6207;49.308;7.336;2022-11-12T03:23:52;20.60;;;4.90;;
12288;SDS011;6207;49.308;7.336;2022-11-12T03:26:19;37.93;;;5.40;;
12288;SDS011;6207;49.308;7.336;2022-11-12T03:28:46;45.17;;;5.40;;
12288;SDS011;6207;49.308;7.336;2022-11-12T03:31:13;52.33;;;5.73;;
12288;SDS011;6207;49.308;7.336;2022-11-12T03:33:40;67.17;;;6.07;;
12288;SDS011;6207;49.308;7.336;2022-11-12T03:36:07;44.47;;;5.47;;
12288;SDS011;6207;49.308;7.336;2022-11-12T03:38:33;50.70;;;5.43;;
12288;SDS011;6207;49.308;7.336;2022-11-12T03:41:00;49.93;;;5.40;;
12288;SDS011;6207;49.308;7.336;2022-11-12T03:43:27;37.50;;;4.77;;
12288;SDS011;6207;49.308;7.336;2022-11-12T03:45:54;22.53;;;4.60;;
12288;SDS011;6207;49.308;7.336;2022-11-12T03:48:21;41.90;;;5.23;;
12288;SDS011;6207;49.308;7.336;2022-11-12T03:50:48;32.83;;;4.70;;
12288;SDS011;6207;49.308;7.336;2022-11-12T03:53:15;29.80;;;4.80;;
12288;SDS011;6207;49.308;7.336;2022-11-12T03:55:42;30.83;;;5.67;;
12288;SDS011;6207;49.308;7.336;2022-11-12T03:58:09;57.57;;;5.90;;
12288;SDS011;6207;49.308;7.336;2022-11-12T04:00:36;56.53;;;5.57;;
12288;SDS011;6207;49.308;7.336;2022-11-12T04:03:03;24.47;;;5.73;;
12288;SDS011;6207;49.308;7.336;2022-11-12T04:05:30;39.97;;;5.73;;
12288;SDS011;6207;49.308;7.336;2022-11-12T04:08:17;42.00;;;5.50;;
12288;SDS011;6207;49.308;7.336;2022-11-12T04:11:06;49.33;;;6.17;;
12288;SDS011;6207;49.308;7.336;2022-11-12T04:13:40;83.33;;;7.37;;
12288;SDS011;6207;49.308;7.336;2022-11-12T04:19:02;81.77;;;8.07;;
12288;SDS011;6207;49.308;7.336;2022-11-12T04:21:50;98.27;;;7.07;;
12288;SDS011;6207;49.308;7.336;2022-11-12T04:24:28;56.07;;;6.03;;
12288;SDS011;6207;49.308;7.336;2022-11-12T04:27:32;28.40;;;5.53;;
12288;SDS011;6207;49.308;7.336;2022-11-12T04:30:00;60.23;;;6.13;;
12288;SDS011;6207;49.308;7.336;2022-11-12T04:32:51;54.57;;;7.30;;
12288;SDS011;6207;49.308;7.336;2022-11-12T04:35:24;44.50;;;6.00;;
12288;SDS011;6207;49.308;7.336;2022-11-12T04:37:52;38.80;;;6.00;;
12288;SDS011;6207;49.308;7.336;2022-11-12T04:40:21;59.23;;;6.70;;
12288;SDS011;6207;49.308;7.336;2022-11-12T04:43:08;35.10;;;5.97;;
12288;SDS011;6207;49.308;7.336;2022-11-12T04:45:55;62.30;;;7.33;;
12288;SDS011;6207;49.308;7.336;2022-11-12T04:48:23;47.20;;;5.83;;
12288;SDS011;6207;49.308;7.336;2022-11-12T04:50:52;61.53;;;6.33;;
12288;SDS011;6207;49.308;7.336;2022-11-12T04:53:24;51.23;;;7.50;;
12288;SDS011;6207;49.308;7.336;2022-11-12T04:55:52;73.73;;;6.63;;
12288;SDS011;6207;49.308;7.336;2022-11-12T04:58:20;86.00;;;7.17;;
12288;SDS011;6207;49.308;7.336;2022-11-12T05:00:48;36.83;;;6.20;;
12288;SDS011;6207;49.308;7.336;2022-11-12T05:03:15;57.87;;;8.53;;
12288;SDS011;6207;49.308;7.336;2022-11-12T05:05:43;69.97;;;7.30;;
12288;SDS011;6207;49.308;7.336;2022-11-12T05:08:10;47.90;;;7.43;;
12288;SDS011;6207;49.308;7.336;2022-11-12T05:10:37;77.27;;;8.47;;
12288;SDS011;6207;49.308;7.336;2022-11-12T05:13:04;61.43;;;7.80;;
12288;SDS011;6207;49.308;7.336;2022-11-12T05:15:30;99.03;;;7.90;;
12288;SDS011;6207;49.308;7.336;2022-11-12T05:17:57;47.60;;;7.00;;
12288;SDS011;6207;49.308;7.336;2022-11-12T05:20:24;63.57;;;7.33;;
12288;SDS011;6207;49.308;7.336;2022-11-12T05:22:51;84.30;;;8.47;;
12288;SDS011;6207;49.308;7.336;2022-11-12T05:25:32;20.40;;;6.57;;
12288;SDS011;6207;49.308;7.336;2022-11-12T05:28:02;73.20;;;7.67;;
12288;SDS011;6207;49.308;7.336;2022-11-12T05:30:32;49.87;;;7.70;;
12288;SDS011;6207;49.308;7.336;2022-11-12T05:32:59;68.73;;;6.70;;
12288;SDS011;6207;49.308;7.336;2022-11-12T05:35:26;129.90;;;12.17;;
12288;SDS011;6207;49.308;7.336;2022-11-12T05:37:52;246.30;;;19.17;;
12288;SDS011;6207;49.308;7.336;2022-11-12T05:40:19;67.93;;;7.17;;
12288;SDS011;6207;49.308;7.336;2022-11-12T05:42:46;411.97;;;29.90;;
12288;SDS011;6207;49.308;7.336;2022-11-12T05:45:13;113.03;;;10.57;;
12288;SDS011;6207;49.308;7.336;2022-11-12T05:47:39;50.80;;;7.57;;
12288;SDS011;6207;49.308;7.336;2022-11-12T05:50:06;92.73;;;9.23;;
12288;SDS011;6207;49.308;7.336;2022-11-12T05:52:36;79.57;;;7.50;;
12288;SDS011;6207;49.308;7.336;2022-11-12T05:55:02;36.60;;;6.10;;
12288;SDS011;6207;49.308;7.336;2022-11-12T05:57:29;72.00;;;9.00;;
12288;SDS011;6207;49.308;7.336;2022-11-12T05:59:56;94.80;;;11.37;;
12288;SDS011;6207;49.308;7.336;2022-11-12T06:02:23;50.83;;;13.03;;
12288;SDS011;6207;49.308;7.336;2022-11-12T06:04:50;116.27;;;8.97;;
12288;SDS011;6207;49.308;7.336;2022-11-12T06:07:17;88.33;;;6.97;;
12288;SDS011;6207;49.308;7.336;2022-11-12T06:09:44;84.40;;;11.90;;
12288;SDS011;6207;49.308;7.336;2022-11-12T06:12:11;87.17;;;8.80;;
12288;SDS011;6207;49.308;7.336;2022-11-12T06:14:38;70.47;;;7.57;;
12288;SDS011;6207;49.308;7.336;2022-11-12T06:17:05;17.67;;;6.43;;
12288;SDS011;6207;49.308;7.336;2022-11-12T06:19:32;34.90;;;6.33;;
12288;SDS011;6207;49.308;7.336;2022-11-12T06:21:58;41.50;;;6.30;;
12288;SDS011;6207;49.308;7.336;2022-11-12T06:24:25;39.47;;;6.57;;
12288;SDS011;6207;49.308;7.336;2022-11-12T06:27:00;32.73;;;6.17;;
12288;SDS011;6207;49.308;7.336;2022-11-12T06:29:27;24.53;;;6.03;;
12288;SDS011;6207;49.308;7.336;2022-11-12T06:31:55;21.50;;;9.57;;
12288;SDS011;6207;49.308;7.336;2022-11-12T06:34:22;32.17;;;6.53;;
12288;SDS011;6207;49.308;7.336;2022-11-12T06:36:49;44.13;;;5.53;;
12288;SDS011;6207;49.308;7.336;2022-11-12T06:39:15;22.30;;;5.70;;
12288;SDS011;6207;49.308;7.336;2022-11-12T06:41:42;21.87;;;5.53;;
12288;SDS011;6207;49.308;7.336;2022-11-12T06:44:09;28.70;;;5.30;;
12288;SDS011;6207;49.308;7.336;2022-11-12T06:46:36;25.23;;;6.23;;
12288;SDS011;6207;49.308;7.336;2022-11-12T06:49:02;30.73;;;5.13;;
12288;SDS011;6207;49.308;7.336;2022-11-12T06:51:29;27.03;;;6.00;;
12288;SDS011;6207;49.308;7.336;2022-11-12T06:53:56;28.40;;;6.80;;
12288;SDS011;6207;49.308;7.336;2022-11-12T06:56:23;25.53;;;5.70;;
12288;SDS011;6207;49.308;7.336;2022-11-12T06:58:50;12.67;;;5.37;;
12288;SDS011;6207;49.308;7.336;2022-11-12T07:01:16;20.73;;;5.20;;
12288;SDS011;6207;49.308;7.336;2022-11-12T07:03:43;15.93;;;6.40;;
12288;SDS011;6207;49.308;7.336;2022-11-12T07:06:11;22.23;;;6.97;;
12288;SDS011;6207;49.308;7.336;2022-11-12T07:08:40;32.03;;;6.70;;
12288;SDS011;6207;49.308;7.336;2022-11-12T07:11:07;16.93;;;6.17;;
12288;SDS011;6207;49.308;7.336;2022-11-12T07:13:34;31.17;;;7.33;;
12288;SDS011;6207;49.308;7.336;2022-11-12T07:16:03;27.73;;;6.20;;
12288;SDS011;6207;49.308;7.336;2022-11-12T07:18:32;21.77;;;6.57;;
12288;SDS011;6207;49.308;7.336;2022-11-12T07:21:00;29.00;;;7.53;;
12288;SDS011;6207;49.308;7.336;2022-11-12T07:23:35;14.57;;;6.33;;
12288;SDS011;6207;49.308;7.336;2022-11-12T07:26:07;41.57;;;7.37;;
12288;SDS011;6207;49.308;7.336;2022-11-12T07:28:46;41.53;;;7.57;;
12288;SDS011;6207;49.308;7.336;2022-11-12T07:31:19;33.13;;;8.77;;
12288;SDS011;6207;49.308;7.336;2022-11-12T07:33:46;52.10;;;10.20;;
12288;SDS011;6207;49.308;7.336;2022-11-12T07:36:17;26.13;;;7.23;;
12288;SDS011;6207;49.308;7.336;2022-11-12T07:38:45;14.90;;;5.83;;
12288;SDS011;6207;49.308;7.336;2022-11-12T07:41:16;31.17;;;7.03;;
12288;SDS011;6207;49.308;7.336;2022-11-12T07:43:48;18.03;;;6.80;;
12288;SDS011;6207;49.308;7.336;2022-11-12T07:46:17;49.83;;;8.10;;
12288;SDS011;6207;49.308;7.336;2022-11-12T07:48:45;55.90;;;7.83;;
12288;SDS011;6207;49.308;7.336;2022-11-12T07:53:41;36.43;;;8.07;;
12288;SDS011;6207;49.308;7.336;2022-11-12T07:56:09;58.63;;;7.33;;
12288;SDS011;6207;49.308;7.336;2022-11-12T07:58:38;43.00;;;7.23;;
12288;SDS011;6207;49.308;7.336;2022-11-12T08:01:08;28.90;;;6.83;;
12288;SDS011;6207;49.308;7.336;2022-11-12T08:03:48;16.43;;;5.77;;
12288;SDS011;6207;49.308;7.336;2022-11-12T08:06:15;24.67;;;7.53;;
12288;SDS011;6207;49.308;7.336;2022-11-12T08:08:42;23.13;;;8.53;;
12288;SDS011;6207;49.308;7.336;2022-11-12T08:11:09;22.90;;;8.00;;
12288;SDS011;6207;49.308;7.336;2022-11-12T08:13:36;30.27;;;7.03;;
12288;SDS011;6207;49.308;7.336;2022-11-12T08:16:03;26.17;;;8.53;;
12288;SDS011;6207;49.308;7.336;2022-11-12T08:18:30;30.07;;;7.37;;
12288;SDS011;6207;49.308;7.336;2022-11-12T08:21:00;33.90;;;6.93;;
12288;SDS011;6207;49.308;7.336;2022-11-12T08:23:28;44.50;;;8.40;;
12288;SDS011;6207;49.308;7.336;2022-11-12T08:25:59;23.83;;;7.33;;
12288;SDS011;6207;49.308;7.336;2022-11-12T08:28:27;54.83;;;10.23;;
12288;SDS011;6207;49.308;7.336;2022-11-12T08:30:55;29.47;;;9.30;;
12288;SDS011;6207;49.308;7.336;2022-11-12T08:33:25;23.70;;;7.20;;
12288;SDS011;6207;49.308;7.336;2022-11-12T08:35:52;44.07;;;9.80;;
12288;SDS011;6207;49.308;7.336;2022-11-12T08:38:19;31.87;;;8.27;;
12288;SDS011;6207;49.308;7.336;2022-11-12T08:40:46;39.53;;;8.23;;
12288;SDS011;6207;49.308;7.336;2022-11-12T08:43:13;34.83;;;9.70;;
12288;SDS011;6207;49.308;7.336;2022-11-12T08:45:40;32.57;;;7.60;;
12288;SDS011;6207;49.308;7.336;2022-11-12T08:48:08;38.53;;;8.70;;
12288;SDS011;6207;49.308;7.336;2022-11-12T08:50:39;21.17;;;5.93;;
12288;SDS011;6207;49.308;7.336;2022-11-12T08:53:08;29.23;;;8.13;;
12288;SDS011;6207;49.308;7.336;2022-11-12T08:55:36;20.47;;;7.23;;
12288;SDS011;6207;49.308;7.336;2022-11-12T08:58:03;34.27;;;7.13;;
12288;SDS011;6207;49.308;7.336;2022-11-12T09:00:35;29.63;;;8.40;;
12288;SDS011;6207;49.308;7.336;2022-11-12T09:03:05;22.30;;;7.00;;
12288;SDS011;6207;49.308;7.336;2022-11-12T09:05:34;16.80;;;6.67;;
12288;SDS011;6207;49.308;7.336;2022-11-12T09:08:02;21.07;;;7.70;;
12288;SDS011;6207;49.308;7.336;2022-11-12T09:10:30;22.27;;;6.73;;
12288;SDS011;6207;49.308;7.336;2022-11-12T09:12:58;32.80;;;9.87;;
12288;SDS011;6207;49.308;7.336;2022-11-12T09:15:25;15.43;;;4.87;;
12288;SDS011;6207;49.308;7.336;2022-11-12T09:18:15;19.10;;;6.53;;
12288;SDS011;6207;49.308;7.336;2022-11-12T09:20:43;21.60;;;8.27;;
12288;SDS011;6207;49.308;7.336;2022-11-12T09:23:11;20.37;;;8.03;;
12288;SDS011;6207;49.308;7.336;2022-11-12T09:25:40;21.90;;;8.17;;
12288;SDS011;6207;49.308;7.336;2022-11-12T09:28:14;35.30;;;9.57;;
12288;SDS011;6207;49.308;7.336;2022-11-12T09:30:46;17.43;;;6.97;;
12288;SDS011;6207;49.308;7.336;2022-11-12T09:33:19;25.27;;;9.03;;
12288;SDS011;6207;49.308;7.336;2022-11-12T09:35:47;20.73;;;8.13;;
12288;SDS011;6207;49.308;7.336;2022-11-12T09:38:15;32.13;;;10.20;;
12288;SDS011;6207;49.308;7.336;2022-11-12T09:40:45;28.97;;;10.03;;
12288;SDS011;6207;49.308;7.336;2022-11-12T09:43:20;27.97;;;8.87;;
12288;SDS011;6207;49.308;7.336;2022-11-12T09:45:56;37.17;;;13.20;;
12288;SDS011;6207;49.308;7.336;2022-11-12T09:48:47;38.87;;;10.93;;
12288;SDS011;6207;49.308;7.336;2022-11-12T09:51:26;30.93;;;9.80;;
12288;SDS011;6207;49.308;7.336;2022-11-12T09:53:56;24.67;;;8.17;;
12288;SDS011;6207;49.308;7.336;2022-11-12T09:56:25;30.80;;;10.20;;
12288;SDS011;6207;49.308;7.336;2022-11-12T09:58:55;33.93;;;12.13;;
12288;SDS011;6207;49.308;7.336;2022-11-12T10:06:45;31.87;;;11.33;;
12288;SDS011;6207;49.308;7.336;2022-11-12T10:09:19;30.23;;;10.90;;
12288;SDS011;6207;49.308;7.336;2022-11-12T10:17:29;24.17;;;9.93;;
12288;SDS011;6207;49.308;7.336;2022-11-12T10:22:57;24.60;;;10.83;;
12288;SDS011;6207;49.308;7.336;2022-11-12T10:25:46;33.50;;;11.57;;
12288;SDS011;6207;49.308;7.336;2022-11-12T10:28:21;27.80;;;10.20;;
12288;SDS011;6207;49.308;7.336;2022-11-12T10:30:54;23.67;;;9.50;;
12288;SDS011;6207;49.308;7.336;2022-11-12T10:33:31;36.83;;;13.50;;
12288;SDS011;6207;49.308;7.336;2022-11-12T10:36:19;31.13;;;13.47;;
12288;SDS011;6207;49.308;7.336;2022-11-12T10:39:01;31.10;;;11.83;;
12288;SDS011;6207;49.308;7.336;2022-11-12T10:41:29;28.23;;;9.97;;
12288;SDS011;6207;49.308;7.336;2022-11-12T10:44:00;31.80;;;11.47;;
12288;SDS011;6207;49.308;7.336;2022-11-12T10:46:30;35.13;;;13.80;;
12288;SDS011;6207;49.308;7.336;2022-11-12T10:49:05;25.50;;;11.07;;
12288;SDS011;6207;49.308;7.336;2022-11-12T10:51:39;25.70;;;10.57;;
12288;SDS011;6207;49.308;7.336;2022-11-12T10:54:19;29.60;;;12.80;;
12288;SDS011;6207;49.308;7.336;2022-11-12T10:56:53;30.83;;;12.10;;
12288;SDS011;6207;49.308;7.336;2022-11-12T10:59:21;29.07;;;12.40;;
12288;SDS011;6207;49.308;7.336;2022-11-12T11:01:56;32.50;;;13.50;;
12288;SDS011;6207;49.308;7.336;2022-11-12T11:04:32;38.07;;;17.17;;
12288;SDS011;6207;49.308;7.336;2022-11-12T11:07:05;36.10;;;14.90;;
12288;SDS011;6207;49.308;7.336;2022-11-12T11:09:53;41.67;;;14.70;;
12288;SDS011;6207;49.308;7.336;2022-11-12T11:12:22;34.90;;;13.60;;
12288;SDS011;6207;49.308;7.336;2022-11-12T11:15:05;27.87;;;12.87;;
12288;SDS011;6207;49.308;7.336;2022-11-12T11:17:42;30.07;;;13.53;;
12288;SDS011;6207;49.308;7.336;2022-11-12T11:23:06;31.57;;;13.83;;
12288;SDS011;6207;49.308;7.336;2022-11-12T11:25:39;34.10;;;14.00;;
12288;SDS011;6207;49.308;7.336;2022-11-12T11:30:50;28.10;;;12.23;;
12288;SDS011;6207;49.308;7.336;2022-11-12T11:33:53;33.20;;;13.70;;
12288;SDS011;6207;49.308;7.336;2022-11-12T11:36:51;31.67;;;12.13;;
12288;SDS011;6207;49.308;7.336;2022-11-12T11:39:42;32.93;;;14.97;;
12288;SDS011;6207;49.308;7.336;2022-11-12T11:45:05;42.57;;;15.80;;
12288;SDS011;6207;49.308;7.336;2022-11-12T11:53:29;29.50;;;13.10;;
12288;SDS011;6207;49.308;7.336;2022-11-12T11:56:22;38.00;;;14.63;;
12288;SDS011;6207;49.308;7.336;2022-11-12T11:59:14;27.70;;;12.37;;
12288;SDS011;6207;49.308;7.336;2022-11-12T12:01:56;40.60;;;14.47;;
12288;SDS011;6207;49.308;7.336;2022-11-12T12:04:41;30.47;;;13.00;;
12288;SDS011;6207;49.308;7.336;2022-11-12T12:10:24;31.70;;;14.63;;
12288;SDS011;6207;49.308;7.336;2022-11-12T12:16:41;40.93;;;17.53;;
12288;SDS011;6207;49.308;7.336;2022-11-12T12:21:38;38.23;;;16.57;;
12288;SDS011;6207;49.308;7.336;2022-11-12T12:26:53;36.87;;;17.17;;
12288;SDS011;6207;49.308;7.336;2022-11-12T12:29:24;37.70;;;17.37;;
12288;SDS011;6207;49.308;7.336;2022-11-12T12:31:59;36.60;;;17.33;;
12288;SDS011;6207;49.308;7.336;2022-11-12T12:34:30;31.63;;;15.40;;
12288;SDS011;6207;49.308;7.336;2022-11-12T12:37:09;29.47;;;15.67;;
12288;SDS011;6207;49.308;7.336;2022-11-12T12:39:56;43.20;;;18.40;;
12288;SDS011;6207;49.308;7.336;2022-11-12T12:42:36;40.00;;;19.90;;
12288;SDS011;6207;49.308;7.336;2022-11-12T12:48:01;42.83;;;18.83;;
12288;SDS011;6207;49.308;7.336;2022-11-12T12:50:32;41.97;;;18.20;;
12288;SDS011;6207;49.308;7.336;2022-11-12T12:53:04;27.23;;;15.00;;
12288;SDS011;6207;49.308;7.336;2022-11-12T12:55:46;40.00;;;19.43;;
12288;SDS011;6207;49.308;7.336;2022-11-12T12:58:21;32.83;;;16.47;;
12288;SDS011;6207;49.308;7.336;2022-11-12T13:00:51;38.47;;;18.83;;
12288;SDS011;6207;49.308;7.336;2022-11-12T13:06:12;49.20;;;22.30;;
12288;SDS011;6207;49.308;7.336;2022-11-12T13:08:47;38.73;;;20.00;;
12288;SDS011;6207;49.308;7.336;2022-11-12T13:11:45;39.33;;;19.43;;
12288;SDS011;6207;49.308;7.336;2022-11-12T13:17:10;43.20;;;19.67;;
12288;SDS011;6207;49.308;7.336;2022-11-12T13:19:38;40.17;;;19.73;;
12288;SDS011;6207;49.308;7.336;2022-11-12T13:30:09;47.17;;;24.70;;
12288;SDS011;6207;49.308;7.336;2022-11-12T13:32:55;45.80;;;25.17;;
12288;SDS011;6207;49.308;7.336;2022-11-12T13:43:38;62.83;;;28.23;;
12288;SDS011;6207;49.308;7.336;2022-11-12T13:48:38;56.17;;;26.60;;
12288;SDS011;6207;49.308;7.336;2022-11-12T13:51:37;61.03;;;28.27;;
12288;SDS011;6207;49.308;7.336;2022-11-12T13:56:49;78.63;;;31.80;;
12288;SDS011;6207;49.308;7.336;2022-11-12T13:59:17;68.50;;;29.57;;
12288;SDS011;6207;49.308;7.336;2022-11-12T14:01:49;64.37;;;29.10;;
12288;SDS011;6207;49.308;7.336;2022-11-12T14:04:18;61.50;;;26.47;;
12288;SDS011;6207;49.308;7.336;2022-11-12T14:22:45;70.47;;;29.67;;
12288;SDS011;6207;49.308;7.336;2022-11-12T14:25:26;64.90;;;30.43;;
12288;SDS011;6207;49.308;7.336;2022-11-12T14:27:54;56.77;;;28.20;;
12288;SDS011;6207;49.308;7.336;2022-11-12T14:30:28;53.73;;;28.43;;
12288;SDS011;6207;49.308;7.336;2022-11-12T14:32:58;55.53;;;27.60;;
12288;SDS011;6207;49.308;7.336;2022-11-12T14:40:52;51.30;;;26.40;;
12288;SDS011;6207;49.308;7.336;2022-11-12T14:43:29;54.30;;;27.93;;
12288;SDS011;6207;49.308;7.336;2022-11-12T14:46:00;65.30;;;27.90;;
12288;SDS011;6207;49.308;7.336;2022-11-12T14:48:47;43.10;;;22.37;;
12288;SDS011;6207;49.308;7.336;2022-11-12T14:51:17;48.30;;;23.57;;
12288;SDS011;6207;49.308;7.336;2022-11-12T14:53:51;44.83;;;22.90;;
12288;SDS011;6207;49.308;7.336;2022-11-12T14:59:05;52.30;;;22.93;;
12288;SDS011;6207;49.308;7.336;2022-11-12T15:01:34;48.93;;;24.43;;
12288;SDS011;6207;49.308;7.336;2022-11-12T15:04:22;39.97;;;20.97;;
12288;SDS011;6207;49.308;7.336;2022-11-12T15:06:55;45.43;;;21.70;;
12288;SDS011;6207;49.308;7.336;2022-11-12T15:09:34;47.03;;;23.40;;
12288;SDS011;6207;49.308;7.336;2022-11-12T15:12:04;44.83;;;22.60;;
12288;SDS011;6207;49.308;7.336;2022-11-12T15:14:34;49.50;;;24.63;;
12288;SDS011;6207;49.308;7.336;2022-11-12T15:17:01;47.97;;;22.17;;
12288;SDS011;6207;49.308;7.336;2022-11-12T15:19:30;50.70;;;24.37;;
12288;SDS011;6207;49.308;7.336;2022-11-12T15:21:58;53.63;;;25.17;;
12288;SDS011;6207;49.308;7.336;2022-11-12T15:24:30;41.83;;;21.00;;
12288;SDS011;6207;49.308;7.336;2022-11-12T15:30:14;46.07;;;23.40;;
12288;SDS011;6207;49.308;7.336;2022-11-12T15:32:50;42.87;;;23.60;;
12288;SDS011;6207;49.308;7.336;2022-11-12T15:35:41;40.80;;;22.57;;
12288;SDS011;6207;49.308;7.336;2022-11-12T15:38:11;42.90;;;22.83;;
12288;SDS011;6207;49.308;7.336;2022-11-12T15:40:47;45.20;;;24.23;;
12288;SDS011;6207;49.308;7.336;2022-11-12T15:43:23;44.33;;;23.60;;
12288;SDS011;6207;49.308;7.336;2022-11-12T15:45:56;40.77;;;23.00;;
12288;SDS011;6207;49.308;7.336;2022-11-12T15:48:23;50.13;;;26.17;;
12288;SDS011;6207;49.308;7.336;2022-11-12T15:50:50;51.10;;;24.87;;
12288;SDS011;6207;49.308;7.336;2022-11-12T15:53:17;52.37;;;24.73;;
12288;SDS011;6207;49.308;7.336;2022-11-12T15:55:44;51.20;;;23.63;;
12288;SDS011;6207;49.308;7.336;2022-11-12T15:58:14;43.57;;;22.93;;
12288;SDS011;6207;49.308;7.336;2022-11-12T16:00:43;43.67;;;22.13;;
12288;SDS011;6207;49.308;7.336;2022-11-12T16:03:17;49.33;;;25.70;;
12288;SDS011;6207;49.308;7.336;2022-11-12T16:05:46;40.50;;;22.67;;
12288;SDS011;6207;49.308;7.336;2022-11-12T16:08:13;43.37;;;23.30;;
12288;SDS011;6207;49.308;7.336;2022-11-12T16:10:41;39.70;;;22.60;;
12288;SDS011;6207;49.308;7.336;2022-11-12T16:13:18;48.67;;;24.83;;
12288;SDS011;6207;49.308;7.336;2022-11-12T16:15:53;44.07;;;23.00;;
12288;SDS011;6207;49.308;7.336;2022-11-12T16:18:20;42.97;;;22.27;;
12288;SDS011;6207;49.308;7.336;2022-11-12T16:20:47;39.33;;;21.30;;
12288;SDS011;6207;49.308;7.336;2022-11-12T16:23:15;37.17;;;19.77;;
12288;SDS011;6207;49.308;7.336;2022-11-12T16:25:41;35.87;;;20.57;;
12288;SDS011;6207;49.308;7.336;2022-11-12T16:28:13;38.07;;;19.40;;
12288;SDS011;6207;49.308;7.336;2022-11-12T16:30:42;39.87;;;20.57;;
12288;SDS011;6207;49.308;7.336;2022-11-12T16:33:12;42.67;;;20.43;;
12288;SDS011;6207;49.308;7.336;2022-11-12T16:35:39;34.23;;;18.10;;
12288;SDS011;6207;49.308;7.336;2022-11-12T16:38:11;34.47;;;18.83;;
12288;SDS011;6207;49.308;7.336;2022-11-12T16:40:40;44.10;;;21.97;;
12288;SDS011;6207;49.308;7.336;2022-11-12T16:43:08;40.87;;;20.67;;
12288;SDS011;6207;49.308;7.336;2022-11-12T16:45:39;40.23;;;21.37;;
12288;SDS011;6207;49.308;7.336;2022-11-12T16:48:20;42.00;;;21.77;;
12288;SDS011;6207;49.308;7.336;2022-11-12T16:50:47;45.60;;;25.83;;
12288;SDS011;6207;49.308;7.336;2022-11-12T16:53:16;47.30;;;24.10;;